createdAt,value
2019-05-25T00:00:08.665Z,94.20
2019-05-25T00:02:34.726Z,94.20
2019-05-25T00:05:00.791Z,94.20
2019-05-25T00:07:26.857Z,94.60
2019-05-25T00:09:52.914Z,94.70
2019-05-25T00:12:19.080Z,94.70
2019-05-25T00:14:45.139Z,94.80
2019-05-25T00:17:11.203Z,94.90
2019-05-25T00:19:37.251Z,95.20
2019-05-25T00:22:03.533Z,95.20
2019-05-25T00:24:29.579Z,95.20
2019-05-25T00:26:55.662Z,95.50
2019-05-25T00:29:21.759Z,95.40
2019-05-25T00:31:47.887Z,95.40
2019-05-25T00:34:13.936Z,95.30
2019-05-25T00:36:40.003Z,95.40
2019-05-25T00:39:06.756Z,95.40
2019-05-25T00:41:32.828Z,95.60
2019-05-25T00:43:58.893Z,95.50
2019-05-25T00:46:24.971Z,95.60
2019-05-25T00:48:51.029Z,95.60
2019-05-25T00:51:17.096Z,95.70
2019-05-25T00:53:43.165Z,95.60
2019-05-25T00:56:09.215Z,95.50
2019-05-25T00:58:35.288Z,95.60
2019-05-25T01:01:01.633Z,95.80
2019-05-25T01:03:27.712Z,95.80
2019-05-25T01:05:53.798Z,95.70
2019-05-25T01:08:19.849Z,95.70
2019-05-25T01:10:45.920Z,95.80
2019-05-25T01:13:11.972Z,96.00
2019-05-25T01:15:38.020Z,96.20
2019-05-25T01:18:04.227Z,96.10
2019-05-25T01:20:30.293Z,96.50
2019-05-25T01:22:56.335Z,96.40
2019-05-25T01:25:22.411Z,96.60
2019-05-25T01:27:48.465Z,96.70
2019-05-25T01:30:15.432Z,97.00
2019-05-25T01:32:41.498Z,96.90
2019-05-25T01:35:08.247Z,96.90
2019-05-25T01:37:34.323Z,96.90
2019-05-25T01:40:00.473Z,96.90
2019-05-25T01:42:26.524Z,97.10
2019-05-25T01:44:52.617Z,97.00
2019-05-25T01:47:18.725Z,96.90
2019-05-25T01:49:44.785Z,97.10
2019-05-25T01:52:10.849Z,97.10
2019-05-25T01:54:36.900Z,97.10
2019-05-25T01:57:03.096Z,97.30
2019-05-25T01:59:29.257Z,97.20
2019-05-25T02:01:55.319Z,97.20
2019-05-25T02:04:21.381Z,97.30
2019-05-25T02:06:47.449Z,97.40
2019-05-25T02:09:13.512Z,97.70
2019-05-25T02:11:39.581Z,97.30
2019-05-25T02:14:05.636Z,97.30
2019-05-25T02:16:31.706Z,97.50
2019-05-25T02:18:57.775Z,97.50
2019-05-25T02:21:23.827Z,97.40
2019-05-25T02:23:49.918Z,97.60
2019-05-25T02:26:15.964Z,97.60
2019-05-25T02:28:42.018Z,97.70
2019-05-25T02:31:08.095Z,97.70
2019-05-25T02:33:34.139Z,97.70
2019-05-25T02:36:00.396Z,97.80
2019-05-25T02:38:26.472Z,97.80
2019-05-25T02:40:52.524Z,97.80
2019-05-25T02:43:18.604Z,97.90
2019-05-25T02:45:44.685Z,97.90
2019-05-25T02:48:10.739Z,98.00
2019-05-25T02:50:36.811Z,98.00
2019-05-25T02:53:02.884Z,98.10
2019-05-25T02:55:34.349Z,98.10
2019-05-25T02:57:56.997Z,98.10
2019-05-25T03:00:30.956Z,98.10
2019-05-25T03:02:57.319Z,98.30
2019-05-25T03:05:23.487Z,98.30
2019-05-25T03:07:50.056Z,98.30
2019-05-25T03:10:16.212Z,98.30
2019-05-25T03:12:42.672Z,98.30
2019-05-25T03:15:09.245Z,98.30
2019-05-25T03:17:35.296Z,98.40
2019-05-25T03:20:02.112Z,98.40
2019-05-25T03:22:28.159Z,98.50
2019-05-25T03:24:54.229Z,98.50
2019-05-25T03:27:20.493Z,98.60
2019-05-25T03:29:46.564Z,98.70
2019-05-25T03:32:12.652Z,98.60
2019-05-25T03:34:38.789Z,98.70
2019-05-25T03:37:04.862Z,98.80
2019-05-25T03:39:30.937Z,99.00
2019-05-25T03:41:57.007Z,98.70
2019-05-25T03:44:23.075Z,98.80
2019-05-25T03:46:49.140Z,98.90
2019-05-25T03:49:15.209Z,98.80
2019-05-25T03:51:41.273Z,98.80
2019-05-25T03:54:07.329Z,98.90
2019-05-25T03:56:33.399Z,99.00
2019-05-25T03:58:59.456Z,99.00
2019-05-25T04:01:25.512Z,99.00
2019-05-25T04:03:51.592Z,99.00
2019-05-25T04:06:17.664Z,99.10
2019-05-25T04:08:43.716Z,99.30
2019-05-25T04:11:09.805Z,99.30
2019-05-25T04:13:35.861Z,99.40
2019-05-25T04:16:01.921Z,99.40
2019-05-25T04:18:29.002Z,99.30
2019-05-25T04:20:55.095Z,99.60
2019-05-25T04:23:21.293Z,99.70
2019-05-25T04:25:47.368Z,99.70
2019-05-25T04:28:13.419Z,99.80
2019-05-25T04:30:39.512Z,99.90
2019-05-25T04:33:05.567Z,99.90
2019-05-25T04:35:31.731Z,99.90
2019-05-25T04:37:57.792Z,99.90
2019-05-25T04:40:23.854Z,99.90
2019-05-25T04:42:49.917Z,99.90
2019-05-25T04:45:16.997Z,99.90
2019-05-25T04:47:43.069Z,99.90
2019-05-25T04:50:09.745Z,99.90
2019-05-25T04:52:35.808Z,99.90
2019-05-25T04:55:02.985Z,99.90
2019-05-25T04:57:29.045Z,99.90
2019-05-25T04:59:55.108Z,99.90
2019-05-25T05:02:21.176Z,99.90
2019-05-25T05:04:47.248Z,99.80
2019-05-25T05:07:13.299Z,99.70
2019-05-25T05:09:39.361Z,99.80
2019-05-25T05:12:05.438Z,99.80
2019-05-25T05:14:31.579Z,99.70
2019-05-25T05:16:57.680Z,99.80
2019-05-25T05:19:23.747Z,99.70
2019-05-25T05:21:49.900Z,99.80
2019-05-25T05:24:15.964Z,99.70
2019-05-25T05:26:54.713Z,99.70
2019-05-25T05:29:10.005Z,99.80
2019-05-25T05:31:36.088Z,99.60
2019-05-25T05:34:02.740Z,99.60
2019-05-25T05:36:29.756Z,99.60
2019-05-25T05:38:56.231Z,99.60
2019-05-25T05:41:22.382Z,99.50
2019-05-25T05:43:50.582Z,99.40
2019-05-25T05:46:19.044Z,99.40
2019-05-25T05:48:48.981Z,99.30
2019-05-25T05:51:18.684Z,99.30
2019-05-25T05:53:45.952Z,99.30
2019-05-25T05:56:12.017Z,99.30
2019-05-25T05:58:38.197Z,99.40
2019-05-25T06:01:04.307Z,99.20
2019-05-25T06:03:30.372Z,99.10
2019-05-25T06:05:56.448Z,99.00
2019-05-25T06:08:22.515Z,99.00
2019-05-25T06:10:48.581Z,98.90
2019-05-25T06:13:14.644Z,98.90
2019-05-25T06:15:40.801Z,98.90
2019-05-25T06:18:06.858Z,98.90
2019-05-25T06:20:32.916Z,98.90
2019-05-25T06:22:59.006Z,98.80
2019-05-25T06:25:25.131Z,98.60
2019-05-25T06:27:51.293Z,98.50
2019-05-25T06:30:18.099Z,98.50
2019-05-25T06:32:44.314Z,98.40
2019-05-25T06:35:10.816Z,98.30
2019-05-25T06:37:37.057Z,98.20
2019-05-25T06:40:04.815Z,98.10
2019-05-25T06:42:30.889Z,98.10
2019-05-25T06:44:56.939Z,98.00
2019-05-25T06:47:23.036Z,97.90
2019-05-25T06:49:49.117Z,97.80
2019-05-25T06:52:15.183Z,97.60
2019-05-25T06:54:41.246Z,97.50
2019-05-25T06:57:07.403Z,97.40
2019-05-25T06:59:33.456Z,97.30
2019-05-25T07:01:59.554Z,97.10
2019-05-25T07:04:25.658Z,97.10
2019-05-25T07:06:51.989Z,96.70
2019-05-25T07:09:18.132Z,96.80
2019-05-25T07:11:46.220Z,96.70
2019-05-25T07:14:12.441Z,96.40
2019-05-25T07:16:39.131Z,96.40
2019-05-25T07:19:05.210Z,95.40
2019-05-25T07:21:31.256Z,95.70
2019-05-25T07:23:57.320Z,95.50
2019-05-25T07:26:23.452Z,95.60
2019-05-25T07:28:49.505Z,95.90
2019-05-25T07:31:15.582Z,94.50
2019-05-25T07:33:44.198Z,93.70
2019-05-25T07:36:10.400Z,94.50
2019-05-25T07:38:36.541Z,95.00
2019-05-25T07:41:02.620Z,94.70
2019-05-25T07:43:28.678Z,95.00
2019-05-25T07:45:54.743Z,94.90
2019-05-25T07:48:20.801Z,95.10
2019-05-25T07:50:46.859Z,95.10
2019-05-25T07:53:13.009Z,94.30
2019-05-25T07:55:39.056Z,94.30
2019-05-25T07:58:16.847Z,94.40
2019-05-25T08:00:33.081Z,93.80
2019-05-25T08:02:59.259Z,93.20
2019-05-25T08:15:11.386Z,90.10
2019-05-25T08:17:37.472Z,90.60
2019-05-25T08:20:05.027Z,89.50
2019-05-25T08:22:31.101Z,90.60
2019-05-25T08:24:57.203Z,88.70
2019-05-25T08:27:23.332Z,90.20
2019-05-25T08:29:49.482Z,90.70
2019-05-25T08:32:15.530Z,88.00
2019-05-25T08:34:41.612Z,89.10
2019-05-25T08:37:07.664Z,88.90
2019-05-25T08:39:33.720Z,89.50
2019-05-25T08:41:59.790Z,89.60
2019-05-25T08:56:39.896Z,83.40
2019-05-25T08:59:05.959Z,83.50
2019-05-25T09:01:32.011Z,81.90
2019-05-25T09:03:58.075Z,81.00
2019-05-25T09:06:24.121Z,79.40
2019-05-25T09:08:50.199Z,81.40
2019-05-25T09:11:16.257Z,80.60
2019-05-25T09:13:42.303Z,79.70
2019-05-25T09:16:08.376Z,82.30
2019-05-25T09:18:34.426Z,81.60
2019-05-25T09:21:00.479Z,82.60
2019-05-25T09:23:26.572Z,82.50
2019-05-25T09:25:52.616Z,82.20
2019-05-25T09:28:18.698Z,80.50
2019-05-25T09:30:44.751Z,81.40
2019-05-25T09:33:10.800Z,80.00
2019-05-25T09:35:36.883Z,79.60
2019-05-25T09:38:02.928Z,82.00
2019-05-25T09:40:28.986Z,81.80
2019-05-25T09:42:55.156Z,81.20
2019-05-25T09:45:21.199Z,79.40
2019-05-25T09:47:47.260Z,77.60
2019-05-25T09:50:13.551Z,76.40
2019-05-25T09:52:39.600Z,78.10
2019-05-25T09:55:07.672Z,79.00
2019-05-25T09:57:33.724Z,79.00
2019-05-25T09:59:59.772Z,79.20
2019-05-25T10:02:26.653Z,77.20
2019-05-25T10:04:52.726Z,78.20
2019-05-25T10:07:18.838Z,75.80
2019-05-25T10:09:44.973Z,76.30
2019-05-25T10:12:11.031Z,76.30
2019-05-25T10:14:37.118Z,76.20
2019-05-25T10:17:03.198Z,77.10
2019-05-25T10:19:29.244Z,76.40
2019-05-25T10:48:50.248Z,95.30
2019-05-25T10:51:16.429Z,65.40
2019-05-25T10:53:42.474Z,65.40
2019-05-25T10:56:08.536Z,64.40
2019-05-25T10:58:34.598Z,58.40
2019-05-25T11:01:00.648Z,56.60
2019-05-25T11:03:27.138Z,59.20
2019-05-25T11:05:53.287Z,59.50
2019-05-25T11:08:19.334Z,56.30
2019-05-25T11:10:45.400Z,58.10
2019-05-25T11:13:12.276Z,57.40
2019-05-25T11:15:39.099Z,55.10
2019-05-25T11:18:05.245Z,55.00
2019-05-25T11:20:31.287Z,53.90
2019-05-25T11:22:57.353Z,56.50
2019-05-25T11:25:23.413Z,55.40
2019-05-25T11:27:49.484Z,54.80
2019-05-25T11:30:15.952Z,54.00
2019-05-25T11:32:42.116Z,55.40
2019-05-25T11:35:09.164Z,56.40
2019-05-25T11:37:35.333Z,56.10
2019-05-25T11:40:04.312Z,55.00
2019-05-25T11:42:30.393Z,51.30
2019-05-25T11:44:56.464Z,51.50
2019-05-25T11:47:22.540Z,51.10
2019-05-25T11:49:48.609Z,49.10
2019-05-25T11:52:14.671Z,49.40
2019-05-25T11:54:40.736Z,48.80
2019-05-25T11:57:06.796Z,47.90
2019-05-25T11:59:32.868Z,49.70
2019-05-25T12:01:58.987Z,49.00
2019-05-25T12:04:25.058Z,50.80
2019-05-25T12:06:51.220Z,51.70
2019-05-25T12:09:17.279Z,51.60
2019-05-25T12:11:43.329Z,52.40
2019-05-25T12:14:09.395Z,50.00
2019-05-25T12:16:35.453Z,49.80
2019-05-25T12:19:01.508Z,48.70
2019-05-25T12:21:27.577Z,47.90
2019-05-25T12:23:53.724Z,47.50
2019-05-25T12:26:19.779Z,46.90
2019-05-25T12:28:45.836Z,47.30
2019-05-25T12:31:12.003Z,48.60
2019-05-25T12:33:38.063Z,50.70
2019-05-25T12:36:04.644Z,48.50
2019-05-25T12:38:30.845Z,48.00
2019-05-25T12:40:56.952Z,47.80
2019-05-25T12:43:23.019Z,48.00
2019-05-25T12:45:49.064Z,48.50
2019-05-25T12:48:15.132Z,49.30
2019-05-25T12:50:41.280Z,50.10
2019-05-25T12:53:07.360Z,49.10
2019-05-25T12:55:33.429Z,49.90
2019-05-25T12:58:00.732Z,49.90
2019-05-25T13:00:26.905Z,49.90
2019-05-25T13:02:52.973Z,50.30
2019-05-25T13:05:32.981Z,48.00
2019-05-25T13:07:46.993Z,49.70
2019-05-25T13:10:13.439Z,49.50
2019-05-25T13:12:39.527Z,50.60
2019-05-25T13:15:06.183Z,50.70
2019-05-25T13:17:32.253Z,50.70
2019-05-25T13:19:58.367Z,49.70
2019-05-25T13:22:24.533Z,49.90
2019-05-25T13:24:50.593Z,48.80
2019-05-25T13:27:16.945Z,48.20
2019-05-25T13:29:43.023Z,49.00
2019-05-25T13:32:09.064Z,49.20
2019-05-25T13:34:35.135Z,47.80
2019-05-25T13:37:02.091Z,49.30
2019-05-25T13:39:28.355Z,49.30
2019-05-25T13:41:54.408Z,47.60
2019-05-25T13:44:20.487Z,48.60
2019-05-25T13:46:46.556Z,48.60
2019-05-25T13:49:12.608Z,48.50
2019-05-25T13:51:38.777Z,47.10
2019-05-25T13:54:04.924Z,47.00
2019-05-25T13:56:30.981Z,46.70
2019-05-25T13:58:57.048Z,45.40
2019-05-25T14:01:28.250Z,43.90
2019-05-25T14:03:51.117Z,42.20
2019-05-25T14:06:17.667Z,42.90
2019-05-25T14:08:43.822Z,45.30
2019-05-25T14:11:09.873Z,42.90
2019-05-25T14:13:35.939Z,43.90
2019-05-25T14:16:07.111Z,42.80
2019-05-25T14:18:30.075Z,41.20
2019-05-25T14:20:56.123Z,42.60
2019-05-25T14:23:22.177Z,42.30
2019-05-25T14:25:48.247Z,43.60
2019-05-25T14:28:14.321Z,44.00
2019-05-25T14:30:40.381Z,44.80
2019-05-25T14:33:06.452Z,43.80
2019-05-25T14:35:32.508Z,43.60
2019-05-25T14:37:58.563Z,42.80
2019-05-25T14:40:24.965Z,40.40
2019-05-25T14:42:51.161Z,41.90
2019-05-25T14:45:17.428Z,40.90
2019-05-25T14:47:43.801Z,42.20
2019-05-25T14:50:10.536Z,38.60
2019-05-25T14:52:36.613Z,38.80
2019-05-25T14:55:07.209Z,39.70
2019-05-25T14:57:33.340Z,41.60
2019-05-25T14:59:59.411Z,40.80
2019-05-25T15:02:25.464Z,40.20
2019-05-25T15:04:51.516Z,40.00
2019-05-25T15:07:17.693Z,40.70
2019-05-25T15:09:43.760Z,40.10
2019-05-25T15:12:09.809Z,40.20
2019-05-25T15:14:35.898Z,40.10
2019-05-25T15:17:02.168Z,40.90
2019-05-25T15:19:28.289Z,41.30
2019-05-25T15:21:54.482Z,40.90
2019-05-25T15:24:20.692Z,41.30
2019-05-25T15:26:46.754Z,42.60
2019-05-25T15:29:12.805Z,42.80
2019-05-25T15:31:38.875Z,42.80
2019-05-25T15:34:04.951Z,43.60
2019-05-25T15:36:30.995Z,44.10
2019-05-25T15:38:57.063Z,43.80
2019-05-25T15:41:23.217Z,43.70
2019-05-25T15:43:49.259Z,43.80
2019-05-25T15:46:15.328Z,44.70
2019-05-25T15:48:41.401Z,43.00
2019-05-25T15:51:07.466Z,42.40
2019-05-25T15:53:33.516Z,42.90
2019-05-25T15:55:59.583Z,43.10
2019-05-25T15:58:25.640Z,43.80
2019-05-25T16:00:51.883Z,43.30
2019-05-25T16:03:19.375Z,43.10
2019-05-25T16:05:47.597Z,43.80
2019-05-25T17:16:39.214Z,46.40
2019-05-25T17:19:05.263Z,47.20
2019-05-25T17:21:31.333Z,47.40
2019-05-25T17:23:57.404Z,47.90
2019-05-25T17:26:23.476Z,48.50
2019-05-25T17:28:49.542Z,48.90
2019-05-25T17:31:15.605Z,48.90
2019-05-25T17:33:46.099Z,49.00
2019-05-25T17:36:12.817Z,49.40
2019-05-25T17:38:37.606Z,49.20
2019-05-25T17:41:03.796Z,49.40
2019-05-25T17:43:29.962Z,49.40
2019-05-25T17:45:56.039Z,49.30
2019-05-25T17:48:22.090Z,49.30
2019-05-25T17:50:48.139Z,49.00
2019-05-25T17:53:14.218Z,49.80
2019-05-25T17:55:40.308Z,48.80
2019-05-25T17:58:06.369Z,49.10
2019-05-25T18:00:38.499Z,49.20
2019-05-25T18:03:04.752Z,50.20
2019-05-25T18:05:30.815Z,50.10
2019-05-25T18:07:56.880Z,50.30
2019-05-25T18:10:22.932Z,50.20
2019-05-25T18:12:49.088Z,50.10
2019-05-25T18:15:15.372Z,50.40
2019-05-25T18:17:41.428Z,50.50
2019-05-25T18:20:08.993Z,51.90
2019-05-25T18:33:35.269Z,56.00
2019-05-25T18:36:01.324Z,57.50
2019-05-25T18:38:27.384Z,56.10
2019-05-25T18:40:53.456Z,58.00
2019-05-25T18:43:19.535Z,60.40
2019-05-25T18:45:45.613Z,61.90
2019-05-25T18:48:11.670Z,62.40
2019-05-25T18:50:37.720Z,63.40
2019-05-25T18:53:03.815Z,63.60
2019-05-25T18:55:29.924Z,65.90
2019-05-25T18:57:55.963Z,65.50
2019-05-25T19:00:22.219Z,67.20
2019-05-25T19:02:48.393Z,67.00
2019-05-25T19:05:14.702Z,69.10
2019-05-25T19:07:40.755Z,69.20
2019-05-25T19:10:07.014Z,69.70
2019-05-25T19:12:33.087Z,69.40
2019-05-25T19:14:59.145Z,69.70
2019-05-25T19:17:25.213Z,70.30
2019-05-25T19:19:51.266Z,71.80
2019-05-25T19:22:17.350Z,72.90
2019-05-25T19:24:43.430Z,73.50
2019-05-25T19:27:09.523Z,74.20
2019-05-25T19:29:35.581Z,75.30
2019-05-25T19:32:01.644Z,76.00
2019-05-25T19:34:27.691Z,76.20
2019-05-25T19:36:53.749Z,80.30
2019-05-25T19:39:19.812Z,79.40
2019-05-25T19:41:45.875Z,79.60
2019-05-25T19:44:12.020Z,80.00
2019-05-25T19:46:38.132Z,79.60
2019-05-25T19:49:04.194Z,80.00
2019-05-25T19:51:30.252Z,80.80
2019-05-25T19:53:56.331Z,97.80
2019-05-25T19:56:22.390Z,97.30
2019-05-25T20:11:00.782Z,91.90
2019-05-25T20:13:26.832Z,92.70
2019-05-25T20:15:52.900Z,93.20
2019-05-25T20:18:18.953Z,93.40
2019-05-25T20:20:45.016Z,93.00
2019-05-25T20:23:11.074Z,93.40
2019-05-25T20:25:37.140Z,94.30
2019-05-25T20:28:03.202Z,94.60
2019-05-25T20:30:29.261Z,94.40
2019-05-25T20:32:55.314Z,94.00
2019-05-25T20:35:32.446Z,95.80
2019-05-25T20:37:49.353Z,96.60
2019-05-25T20:40:16.037Z,96.00
2019-05-25T20:42:42.479Z,95.90
2019-05-25T20:45:08.643Z,94.90
2019-05-25T20:47:34.701Z,94.50
2019-05-25T20:50:00.769Z,94.90
2019-05-25T20:52:26.819Z,94.80
2019-05-25T20:54:52.884Z,94.20
2019-05-25T20:57:18.952Z,94.10
2019-05-25T20:59:45.075Z,94.00
2019-05-25T21:02:11.193Z,93.80
2019-05-25T21:04:37.257Z,94.00
2019-05-25T21:07:03.294Z,93.90
2019-05-25T21:09:29.368Z,94.10
2019-05-25T21:11:56.174Z,93.90
2019-05-25T21:14:22.604Z,93.70
2019-05-25T21:16:48.669Z,94.10
2019-05-25T21:19:14.714Z,94.10
2019-05-25T21:21:40.780Z,94.20
2019-05-25T21:24:06.852Z,93.70
2019-05-25T21:26:32.903Z,93.60
2019-05-25T21:28:58.969Z,93.60
2019-05-25T21:31:25.036Z,93.40
2019-05-25T21:33:51.083Z,93.40
2019-05-25T21:36:17.261Z,93.40
2019-05-25T21:38:43.323Z,93.30
2019-05-25T21:41:09.383Z,93.30
2019-05-25T21:43:35.461Z,93.30
2019-05-25T21:46:01.520Z,93.40
2019-05-25T21:48:27.576Z,93.30
2019-05-25T21:50:53.644Z,93.40
2019-05-25T21:53:19.711Z,93.50
2019-05-25T21:55:45.772Z,93.80
2019-05-25T21:58:11.831Z,93.70
2019-05-25T22:00:39.801Z,93.70
2019-05-25T22:03:05.933Z,93.60
2019-05-25T22:05:32.056Z,93.60
2019-05-25T22:07:58.108Z,93.80
2019-05-25T22:10:24.179Z,93.80
2019-05-25T22:12:50.240Z,93.80
2019-05-25T22:15:16.296Z,93.90
2019-05-25T22:17:42.359Z,94.10
2019-05-25T22:20:09.712Z,94.20
2019-05-25T22:22:35.793Z,94.30
2019-05-25T22:25:05.767Z,94.30
2019-05-25T22:27:31.852Z,94.50
2019-05-25T22:29:57.915Z,95.70
2019-05-25T22:32:23.968Z,99.90
2019-05-25T22:34:50.029Z,99.90
2019-05-25T22:37:16.095Z,95.00
2019-05-25T22:39:42.152Z,95.10
2019-05-25T22:42:08.230Z,95.20
2019-05-25T22:44:34.283Z,95.30
2019-05-25T22:47:00.340Z,95.40
2019-05-25T22:49:26.422Z,95.50
2019-05-25T22:51:52.476Z,95.50
2019-05-25T22:54:18.543Z,95.70
2019-05-25T22:56:44.651Z,95.80
2019-05-25T22:59:10.713Z,95.90
2019-05-25T23:01:36.774Z,96.10
2019-05-25T23:04:02.951Z,96.40
2019-05-25T23:06:29.193Z,96.40
2019-05-25T23:08:55.266Z,96.70
2019-05-25T23:11:21.307Z,96.60
2019-05-25T23:13:47.382Z,97.20
2019-05-25T23:16:13.948Z,97.30
2019-05-25T23:18:39.995Z,97.00
2019-05-25T23:21:06.057Z,97.40
2019-05-25T23:23:32.127Z,97.40
2019-05-25T23:25:58.186Z,97.10
2019-05-25T23:28:24.252Z,97.10
2019-05-25T23:30:50.324Z,97.60
2019-05-25T23:33:16.387Z,97.50
2019-05-25T23:35:42.448Z,97.30
2019-05-25T23:38:08.505Z,97.70
2019-05-25T23:40:34.671Z,97.90
2019-05-25T23:43:00.739Z,97.80
2019-05-25T23:45:26.808Z,97.60
2019-05-25T23:47:52.875Z,97.50
2019-05-25T23:50:19.024Z,97.50
2019-05-25T23:52:45.079Z,97.20
2019-05-25T23:55:11.860Z,96.90
2019-05-25T23:57:37.928Z,97.10
